sensor_id;sensor_type;location;lat;lon;timestamp;P1;durP1;ratioP1;P2;durP2;ratioP2
14125;SDS011;7141;49.484;11.242;2023-07-13T00:01:39;2.10;;;1.77;;
14125;SDS011;7141;49.484;11.242;2023-07-13T00:04:05;3.07;;;2.00;;
14125;SDS011;7141;49.484;11.242;2023-07-13T00:06:31;3.20;;;2.10;;
14125;SDS011;7141;49.484;11.242;2023-07-13T00:08:58;2.10;;;1.90;;
14125;SDS011;7141;49.484;11.242;2023-07-13T00:11:24;3.83;;;2.00;;
14125;SDS011;7141;49.484;11.242;2023-07-13T00:13:50;7.23;;;2.00;;
14125;SDS011;7141;49.484;11.242;2023-07-13T00:16:17;2.50;;;1.90;;
14125;SDS011;7141;49.484;11.242;2023-07-13T00:18:43;3.43;;;2.20;;
14125;SDS011;7141;49.484;11.242;2023-07-13T00:21:09;3.03;;;1.93;;
14125;SDS011;7141;49.484;11.242;2023-07-13T00:23:36;3.70;;;1.80;;
14125;SDS011;7141;49.484;11.242;2023-07-13T00:26:03;2.40;;;1.97;;
14125;SDS011;7141;49.484;11.242;2023-07-13T00:28:30;4.73;;;2.00;;
14125;SDS011;7141;49.484;11.242;2023-07-13T00:30:56;5.07;;;2.00;;
14125;SDS011;7141;49.484;11.242;2023-07-13T00:33:22;2.03;;;1.73;;
14125;SDS011;7141;49.484;11.242;2023-07-13T00:35:48;2.70;;;1.60;;
14125;SDS011;7141;49.484;11.242;2023-07-13T00:38:14;2.50;;;1.90;;
14125;SDS011;7141;49.484;11.242;2023-07-13T00:40:40;2.53;;;1.70;;
14125;SDS011;7141;49.484;11.242;2023-07-13T00:43:13;2.07;;;1.80;;
14125;SDS011;7141;49.484;11.242;2023-07-13T00:48:13;1.83;;;1.50;;
14125;SDS011;7141;49.484;11.242;2023-07-13T00:50:39;2.60;;;1.70;;
14125;SDS011;7141;49.484;11.242;2023-07-13T00:53:06;2.90;;;1.90;;
14125;SDS011;7141;49.484;11.242;2023-07-13T00:55:33;2.67;;;1.80;;
14125;SDS011;7141;49.484;11.242;2023-07-13T00:57:59;3.30;;;2.20;;
14125;SDS011;7141;49.484;11.242;2023-07-13T01:00:27;3.23;;;2.20;;
14125;SDS011;7141;49.484;11.242;2023-07-13T01:02:54;2.03;;;1.67;;
14125;SDS011;7141;49.484;11.242;2023-07-13T01:05:21;2.33;;;1.73;;
14125;SDS011;7141;49.484;11.242;2023-07-13T01:07:48;6.13;;;2.00;;
14125;SDS011;7141;49.484;11.242;2023-07-13T01:10:15;3.07;;;1.90;;
14125;SDS011;7141;49.484;11.242;2023-07-13T01:12:41;4.90;;;2.23;;
14125;SDS011;7141;49.484;11.242;2023-07-13T01:17:52;2.80;;;2.07;;
14125;SDS011;7141;49.484;11.242;2023-07-13T01:20:18;6.07;;;2.20;;
14125;SDS011;7141;49.484;11.242;2023-07-13T01:22:44;4.60;;;1.80;;
14125;SDS011;7141;49.484;11.242;2023-07-13T01:25:10;5.50;;;1.93;;
14125;SDS011;7141;49.484;11.242;2023-07-13T01:27:36;3.40;;;1.90;;
14125;SDS011;7141;49.484;11.242;2023-07-13T01:30:02;4.33;;;2.07;;
14125;SDS011;7141;49.484;11.242;2023-07-13T01:32:29;2.57;;;2.17;;
14125;SDS011;7141;49.484;11.242;2023-07-13T01:34:57;2.27;;;1.63;;
14125;SDS011;7141;49.484;11.242;2023-07-13T01:37:24;2.87;;;1.90;;
14125;SDS011;7141;49.484;11.242;2023-07-13T01:39:50;1.70;;;1.60;;
14125;SDS011;7141;49.484;11.242;2023-07-13T01:42:16;3.10;;;1.90;;
14125;SDS011;7141;49.484;11.242;2023-07-13T01:44:42;2.17;;;1.73;;
14125;SDS011;7141;49.484;11.242;2023-07-13T01:47:09;3.27;;;1.77;;
14125;SDS011;7141;49.484;11.242;2023-07-13T01:49:35;3.07;;;1.80;;
14125;SDS011;7141;49.484;11.242;2023-07-13T01:52:02;3.43;;;1.73;;
14125;SDS011;7141;49.484;11.242;2023-07-13T01:54:28;2.10;;;1.60;;
14125;SDS011;7141;49.484;11.242;2023-07-13T01:56:54;3.63;;;1.90;;
14125;SDS011;7141;49.484;11.242;2023-07-13T01:59:20;2.87;;;2.20;;
14125;SDS011;7141;49.484;11.242;2023-07-13T02:01:46;1.87;;;1.67;;
14125;SDS011;7141;49.484;11.242;2023-07-13T02:04:13;3.07;;;1.77;;
14125;SDS011;7141;49.484;11.242;2023-07-13T02:06:39;2.40;;;1.80;;
14125;SDS011;7141;49.484;11.242;2023-07-13T02:09:05;3.80;;;1.90;;
14125;SDS011;7141;49.484;11.242;2023-07-13T02:11:32;3.27;;;2.00;;
14125;SDS011;7141;49.484;11.242;2023-07-13T02:14:02;3.17;;;1.70;;
14125;SDS011;7141;49.484;11.242;2023-07-13T02:16:28;2.43;;;1.83;;
14125;SDS011;7141;49.484;11.242;2023-07-13T02:18:54;3.93;;;1.80;;
14125;SDS011;7141;49.484;11.242;2023-07-13T02:21:21;2.07;;;1.60;;
14125;SDS011;7141;49.484;11.242;2023-07-13T02:23:48;2.60;;;1.63;;
14125;SDS011;7141;49.484;11.242;2023-07-13T02:26:14;3.17;;;1.80;;
14125;SDS011;7141;49.484;11.242;2023-07-13T02:28:40;3.60;;;1.77;;
14125;SDS011;7141;49.484;11.242;2023-07-13T02:31:10;2.23;;;1.57;;
14125;SDS011;7141;49.484;11.242;2023-07-13T02:33:36;2.67;;;1.90;;
14125;SDS011;7141;49.484;11.242;2023-07-13T02:36:02;7.07;;;1.70;;
14125;SDS011;7141;49.484;11.242;2023-07-13T02:38:30;2.83;;;1.97;;
14125;SDS011;7141;49.484;11.242;2023-07-13T02:40:58;2.83;;;2.00;;
14125;SDS011;7141;49.484;11.242;2023-07-13T02:43:24;2.37;;;1.60;;
14125;SDS011;7141;49.484;11.242;2023-07-13T02:45:50;3.40;;;1.70;;
14125;SDS011;7141;49.484;11.242;2023-07-13T02:48:16;2.00;;;1.70;;
14125;SDS011;7141;49.484;11.242;2023-07-13T02:50:43;6.23;;;1.63;;
14125;SDS011;7141;49.484;11.242;2023-07-13T02:53:09;2.63;;;1.57;;
14125;SDS011;7141;49.484;11.242;2023-07-13T02:55:35;2.63;;;1.70;;
14125;SDS011;7141;49.484;11.242;2023-07-13T02:58:01;2.90;;;1.50;;
14125;SDS011;7141;49.484;11.242;2023-07-13T03:00:27;2.67;;;1.73;;
14125;SDS011;7141;49.484;11.242;2023-07-13T03:02:53;4.57;;;1.80;;
14125;SDS011;7141;49.484;11.242;2023-07-13T03:05:22;3.27;;;1.83;;
14125;SDS011;7141;49.484;11.242;2023-07-13T03:07:48;3.57;;;1.47;;
14125;SDS011;7141;49.484;11.242;2023-07-13T03:10:14;2.83;;;1.80;;
14125;SDS011;7141;49.484;11.242;2023-07-13T03:12:41;4.73;;;1.80;;
14125;SDS011;7141;49.484;11.242;2023-07-13T03:15:07;2.63;;;1.97;;
14125;SDS011;7141;49.484;11.242;2023-07-13T03:17:33;4.83;;;1.97;;
14125;SDS011;7141;49.484;11.242;2023-07-13T03:19:59;2.53;;;1.80;;
14125;SDS011;7141;49.484;11.242;2023-07-13T03:22:25;2.63;;;1.87;;
14125;SDS011;7141;49.484;11.242;2023-07-13T03:24:51;3.83;;;1.70;;
14125;SDS011;7141;49.484;11.242;2023-07-13T03:27:17;2.37;;;1.67;;
14125;SDS011;7141;49.484;11.242;2023-07-13T03:29:44;2.60;;;1.90;;
14125;SDS011;7141;49.484;11.242;2023-07-13T03:32:10;1.83;;;1.53;;
14125;SDS011;7141;49.484;11.242;2023-07-13T03:34:36;3.17;;;1.80;;
14125;SDS011;7141;49.484;11.242;2023-07-13T03:37:02;2.53;;;1.70;;
14125;SDS011;7141;49.484;11.242;2023-07-13T03:39:28;2.57;;;1.70;;
14125;SDS011;7141;49.484;11.242;2023-07-13T03:41:54;5.03;;;1.80;;
14125;SDS011;7141;49.484;11.242;2023-07-13T03:44:20;3.83;;;1.80;;
14125;SDS011;7141;49.484;11.242;2023-07-13T03:46:46;2.07;;;1.70;;
14125;SDS011;7141;49.484;11.242;2023-07-13T03:49:12;2.93;;;1.93;;
14125;SDS011;7141;49.484;11.242;2023-07-13T03:51:38;3.33;;;1.77;;
14125;SDS011;7141;49.484;11.242;2023-07-13T03:54:04;2.93;;;1.80;;
14125;SDS011;7141;49.484;11.242;2023-07-13T03:56:30;3.07;;;1.57;;
14125;SDS011;7141;49.484;11.242;2023-07-13T03:58:58;2.40;;;1.83;;
14125;SDS011;7141;49.484;11.242;2023-07-13T04:01:24;4.13;;;1.90;;
14125;SDS011;7141;49.484;11.242;2023-07-13T04:03:50;2.33;;;1.73;;
14125;SDS011;7141;49.484;11.242;2023-07-13T04:06:25;4.67;;;2.13;;
14125;SDS011;7141;49.484;11.242;2023-07-13T04:08:52;4.50;;;1.93;;
14125;SDS011;7141;49.484;11.242;2023-07-13T04:11:19;2.90;;;1.60;;
14125;SDS011;7141;49.484;11.242;2023-07-13T04:13:45;2.30;;;1.77;;
14125;SDS011;7141;49.484;11.242;2023-07-13T04:16:12;3.33;;;1.80;;
14125;SDS011;7141;49.484;11.242;2023-07-13T04:18:38;3.03;;;1.70;;
14125;SDS011;7141;49.484;11.242;2023-07-13T04:21:06;3.40;;;2.07;;
14125;SDS011;7141;49.484;11.242;2023-07-13T04:23:32;6.90;;;1.80;;
14125;SDS011;7141;49.484;11.242;2023-07-13T04:25:57;2.47;;;2.03;;
14125;SDS011;7141;49.484;11.242;2023-07-13T04:28:24;2.33;;;1.70;;
14125;SDS011;7141;49.484;11.242;2023-07-13T04:30:50;3.30;;;2.07;;
14125;SDS011;7141;49.484;11.242;2023-07-13T04:33:16;1.50;;;1.40;;
14125;SDS011;7141;49.484;11.242;2023-07-13T04:35:43;3.77;;;1.97;;
14125;SDS011;7141;49.484;11.242;2023-07-13T04:38:11;2.27;;;1.77;;
14125;SDS011;7141;49.484;11.242;2023-07-13T04:40:37;4.77;;;1.90;;
14125;SDS011;7141;49.484;11.242;2023-07-13T04:43:03;2.80;;;1.87;;
14125;SDS011;7141;49.484;11.242;2023-07-13T04:45:29;2.27;;;1.60;;
14125;SDS011;7141;49.484;11.242;2023-07-13T04:47:56;3.23;;;1.83;;
14125;SDS011;7141;49.484;11.242;2023-07-13T04:50:22;3.30;;;1.83;;
14125;SDS011;7141;49.484;11.242;2023-07-13T04:52:49;3.70;;;1.70;;
14125;SDS011;7141;49.484;11.242;2023-07-13T04:55:15;3.63;;;1.90;;
14125;SDS011;7141;49.484;11.242;2023-07-13T04:57:41;4.57;;;1.60;;
14125;SDS011;7141;49.484;11.242;2023-07-13T05:00:07;3.90;;;1.80;;
14125;SDS011;7141;49.484;11.242;2023-07-13T05:02:34;5.20;;;1.90;;
14125;SDS011;7141;49.484;11.242;2023-07-13T05:05:00;4.37;;;1.90;;
14125;SDS011;7141;49.484;11.242;2023-07-13T05:07:26;4.13;;;1.70;;
14125;SDS011;7141;49.484;11.242;2023-07-13T05:09:52;3.53;;;1.80;;
14125;SDS011;7141;49.484;11.242;2023-07-13T05:12:18;3.80;;;1.90;;
14125;SDS011;7141;49.484;11.242;2023-07-13T05:14:44;3.77;;;1.97;;
14125;SDS011;7141;49.484;11.242;2023-07-13T05:17:10;2.27;;;1.70;;
14125;SDS011;7141;49.484;11.242;2023-07-13T05:19:36;4.43;;;1.90;;
14125;SDS011;7141;49.484;11.242;2023-07-13T05:22:02;3.67;;;1.80;;
14125;SDS011;7141;49.484;11.242;2023-07-13T05:24:29;4.63;;;1.97;;
14125;SDS011;7141;49.484;11.242;2023-07-13T05:26:55;2.50;;;1.70;;
14125;SDS011;7141;49.484;11.242;2023-07-13T05:29:21;3.80;;;1.90;;
14125;SDS011;7141;49.484;11.242;2023-07-13T05:31:47;3.03;;;1.70;;
14125;SDS011;7141;49.484;11.242;2023-07-13T05:34:13;2.73;;;1.90;;
14125;SDS011;7141;49.484;11.242;2023-07-13T05:36:40;3.03;;;1.73;;
14125;SDS011;7141;49.484;11.242;2023-07-13T05:39:06;4.07;;;1.70;;
14125;SDS011;7141;49.484;11.242;2023-07-13T05:41:32;3.40;;;1.80;;
14125;SDS011;7141;49.484;11.242;2023-07-13T05:43:58;4.00;;;1.70;;
14125;SDS011;7141;49.484;11.242;2023-07-13T05:46:24;5.53;;;1.87;;
14125;SDS011;7141;49.484;11.242;2023-07-13T05:48:50;3.70;;;1.80;;
14125;SDS011;7141;49.484;11.242;2023-07-13T05:51:17;4.90;;;1.50;;
14125;SDS011;7141;49.484;11.242;2023-07-13T05:53:42;3.17;;;1.70;;
14125;SDS011;7141;49.484;11.242;2023-07-13T05:56:08;3.13;;;1.73;;
14125;SDS011;7141;49.484;11.242;2023-07-13T05:58:34;2.90;;;1.67;;
14125;SDS011;7141;49.484;11.242;2023-07-13T06:01:02;3.13;;;1.67;;
14125;SDS011;7141;49.484;11.242;2023-07-13T06:03:28;6.60;;;1.60;;
14125;SDS011;7141;49.484;11.242;2023-07-13T06:05:54;4.67;;;1.87;;
14125;SDS011;7141;49.484;11.242;2023-07-13T06:08:20;3.27;;;1.40;;
14125;SDS011;7141;49.484;11.242;2023-07-13T06:10:46;5.00;;;1.50;;
14125;SDS011;7141;49.484;11.242;2023-07-13T06:13:12;1.93;;;1.50;;
14125;SDS011;7141;49.484;11.242;2023-07-13T06:15:38;4.93;;;1.70;;
14125;SDS011;7141;49.484;11.242;2023-07-13T06:18:04;3.50;;;1.70;;
14125;SDS011;7141;49.484;11.242;2023-07-13T06:20:30;2.60;;;1.47;;
14125;SDS011;7141;49.484;11.242;2023-07-13T06:22:58;2.77;;;1.50;;
14125;SDS011;7141;49.484;11.242;2023-07-13T06:25:25;4.40;;;1.50;;
14125;SDS011;7141;49.484;11.242;2023-07-13T06:27:51;2.70;;;1.40;;
14125;SDS011;7141;49.484;11.242;2023-07-13T06:30:17;5.10;;;1.87;;
14125;SDS011;7141;49.484;11.242;2023-07-13T06:32:43;2.13;;;1.50;;
14125;SDS011;7141;49.484;11.242;2023-07-13T06:35:09;2.07;;;1.40;;
14125;SDS011;7141;49.484;11.242;2023-07-13T06:37:37;2.57;;;1.73;;
14125;SDS011;7141;49.484;11.242;2023-07-13T06:40:03;3.37;;;1.60;;
14125;SDS011;7141;49.484;11.242;2023-07-13T06:42:30;2.47;;;1.40;;
14125;SDS011;7141;49.484;11.242;2023-07-13T06:44:55;1.63;;;1.40;;
14125;SDS011;7141;49.484;11.242;2023-07-13T06:47:21;5.57;;;1.63;;
14125;SDS011;7141;49.484;11.242;2023-07-13T06:49:47;3.20;;;1.47;;
14125;SDS011;7141;49.484;11.242;2023-07-13T06:52:13;2.23;;;1.37;;
14125;SDS011;7141;49.484;11.242;2023-07-13T06:54:39;2.67;;;1.30;;
14125;SDS011;7141;49.484;11.242;2023-07-13T06:57:05;3.33;;;1.50;;
14125;SDS011;7141;49.484;11.242;2023-07-13T06:59:32;1.73;;;1.30;;
14125;SDS011;7141;49.484;11.242;2023-07-13T07:01:58;2.40;;;1.80;;
14125;SDS011;7141;49.484;11.242;2023-07-13T07:04:24;2.70;;;1.40;;
14125;SDS011;7141;49.484;11.242;2023-07-13T07:06:50;2.00;;;1.53;;
14125;SDS011;7141;49.484;11.242;2023-07-13T07:09:16;1.53;;;1.23;;
14125;SDS011;7141;49.484;11.242;2023-07-13T07:11:42;1.67;;;1.40;;
14125;SDS011;7141;49.484;11.242;2023-07-13T07:14:08;2.87;;;1.57;;
14125;SDS011;7141;49.484;11.242;2023-07-13T07:16:34;2.10;;;1.47;;
14125;SDS011;7141;49.484;11.242;2023-07-13T07:19:00;1.60;;;1.40;;
14125;SDS011;7141;49.484;11.242;2023-07-13T07:21:26;2.73;;;1.57;;
14125;SDS011;7141;49.484;11.242;2023-07-13T07:23:52;2.03;;;1.43;;
14125;SDS011;7141;49.484;11.242;2023-07-13T07:26:18;3.97;;;1.50;;
14125;SDS011;7141;49.484;11.242;2023-07-13T07:28:44;2.20;;;1.47;;
14125;SDS011;7141;49.484;11.242;2023-07-13T07:31:10;2.50;;;1.40;;
14125;SDS011;7141;49.484;11.242;2023-07-13T07:33:36;1.70;;;1.43;;
14125;SDS011;7141;49.484;11.242;2023-07-13T07:36:02;1.97;;;1.47;;
14125;SDS011;7141;49.484;11.242;2023-07-13T07:38:28;2.10;;;1.50;;
14125;SDS011;7141;49.484;11.242;2023-07-13T07:40:54;1.87;;;1.57;;
14125;SDS011;7141;49.484;11.242;2023-07-13T07:43:20;1.40;;;1.30;;
14125;SDS011;7141;49.484;11.242;2023-07-13T07:45:46;2.10;;;1.50;;
14125;SDS011;7141;49.484;11.242;2023-07-13T07:48:12;1.97;;;1.40;;
14125;SDS011;7141;49.484;11.242;2023-07-13T07:50:38;1.60;;;1.37;;
14125;SDS011;7141;49.484;11.242;2023-07-13T07:53:05;1.80;;;1.40;;
14125;SDS011;7141;49.484;11.242;2023-07-13T07:55:33;2.07;;;1.40;;
14125;SDS011;7141;49.484;11.242;2023-07-13T07:57:59;1.40;;;1.10;;
14125;SDS011;7141;49.484;11.242;2023-07-13T08:00:25;2.07;;;1.50;;
14125;SDS011;7141;49.484;11.242;2023-07-13T08:02:53;1.97;;;1.40;;
14125;SDS011;7141;49.484;11.242;2023-07-13T08:05:19;3.73;;;1.37;;
14125;SDS011;7141;49.484;11.242;2023-07-13T08:07:45;2.70;;;1.33;;
14125;SDS011;7141;49.484;11.242;2023-07-13T08:10:11;2.97;;;1.30;;
14125;SDS011;7141;49.484;11.242;2023-07-13T08:12:37;2.13;;;1.40;;
14125;SDS011;7141;49.484;11.242;2023-07-13T08:15:04;3.57;;;1.00;;
14125;SDS011;7141;49.484;11.242;2023-07-13T08:17:30;2.17;;;1.50;;
14125;SDS011;7141;49.484;11.242;2023-07-13T08:19:56;1.63;;;1.37;;
14125;SDS011;7141;49.484;11.242;2023-07-13T08:22:22;1.67;;;1.43;;
14125;SDS011;7141;49.484;11.242;2023-07-13T08:24:48;2.53;;;1.40;;
14125;SDS011;7141;49.484;11.242;2023-07-13T08:27:21;1.20;;;1.10;;
14125;SDS011;7141;49.484;11.242;2023-07-13T08:29:47;1.93;;;1.30;;
14125;SDS011;7141;49.484;11.242;2023-07-13T08:32:13;1.40;;;1.30;;
14125;SDS011;7141;49.484;11.242;2023-07-13T08:34:39;1.77;;;1.23;;
14125;SDS011;7141;49.484;11.242;2023-07-13T08:37:06;1.60;;;1.30;;
14125;SDS011;7141;49.484;11.242;2023-07-13T08:39:32;2.90;;;1.40;;
14125;SDS011;7141;49.484;11.242;2023-07-13T08:42:05;1.30;;;1.20;;
14125;SDS011;7141;49.484;11.242;2023-07-13T08:44:39;2.57;;;1.30;;
14125;SDS011;7141;49.484;11.242;2023-07-13T08:47:06;2.23;;;1.37;;
14125;SDS011;7141;49.484;11.242;2023-07-13T08:49:33;1.40;;;1.20;;
14125;SDS011;7141;49.484;11.242;2023-07-13T08:52:42;2.00;;;1.53;;
14125;SDS011;7141;49.484;11.242;2023-07-13T08:54:49;1.70;;;1.30;;
14125;SDS011;7141;49.484;11.242;2023-07-13T08:57:17;1.30;;;1.03;;
14125;SDS011;7141;49.484;11.242;2023-07-13T08:59:44;3.43;;;1.20;;
14125;SDS011;7141;49.484;11.242;2023-07-13T09:05:19;2.37;;;1.57;;
14125;SDS011;7141;49.484;11.242;2023-07-13T09:15:04;1.60;;;1.20;;
14125;SDS011;7141;49.484;11.242;2023-07-13T09:17:35;3.30;;;1.50;;
14125;SDS011;7141;49.484;11.242;2023-07-13T09:22:32;1.77;;;1.20;;
14125;SDS011;7141;49.484;11.242;2023-07-13T09:25:02;1.37;;;1.27;;
14125;SDS011;7141;49.484;11.242;2023-07-13T09:27:37;1.30;;;1.20;;
14125;SDS011;7141;49.484;11.242;2023-07-13T09:32:40;1.33;;;1.20;;
14125;SDS011;7141;49.484;11.242;2023-07-13T09:35:11;2.33;;;1.30;;
14125;SDS011;7141;49.484;11.242;2023-07-13T09:37:37;1.63;;;1.07;;
14125;SDS011;7141;49.484;11.242;2023-07-13T09:40:08;1.53;;;1.20;;
14125;SDS011;7141;49.484;11.242;2023-07-13T09:42:36;1.97;;;1.30;;
14125;SDS011;7141;49.484;11.242;2023-07-13T09:45:03;2.00;;;1.47;;
14125;SDS011;7141;49.484;11.242;2023-07-13T09:47:33;1.83;;;1.20;;
14125;SDS011;7141;49.484;11.242;2023-07-13T09:50:04;1.10;;;1.07;;
14125;SDS011;7141;49.484;11.242;2023-07-13T09:52:44;1.70;;;1.10;;
14125;SDS011;7141;49.484;11.242;2023-07-13T09:57:49;1.63;;;1.40;;
14125;SDS011;7141;49.484;11.242;2023-07-13T10:00:24;1.80;;;1.10;;
14125;SDS011;7141;49.484;11.242;2023-07-13T10:05:33;2.07;;;1.33;;
14125;SDS011;7141;49.484;11.242;2023-07-13T10:08:02;2.13;;;1.40;;
14125;SDS011;7141;49.484;11.242;2023-07-13T10:10:32;2.10;;;1.13;;
14125;SDS011;7141;49.484;11.242;2023-07-13T10:13:00;1.33;;;1.10;;
14125;SDS011;7141;49.484;11.242;2023-07-13T10:15:29;2.10;;;1.27;;
14125;SDS011;7141;49.484;11.242;2023-07-13T10:17:55;2.10;;;1.10;;
14125;SDS011;7141;49.484;11.242;2023-07-13T10:20:22;2.00;;;1.30;;
14125;SDS011;7141;49.484;11.242;2023-07-13T10:22:56;2.13;;;1.20;;
14125;SDS011;7141;49.484;11.242;2023-07-13T10:25:26;1.47;;;1.20;;
14125;SDS011;7141;49.484;11.242;2023-07-13T10:27:53;1.67;;;1.17;;
14125;SDS011;7141;49.484;11.242;2023-07-13T10:30:22;2.10;;;1.30;;
14125;SDS011;7141;49.484;11.242;2023-07-13T10:32:50;1.80;;;1.43;;
14125;SDS011;7141;49.484;11.242;2023-07-13T10:35:18;1.70;;;1.07;;
14125;SDS011;7141;49.484;11.242;2023-07-13T10:38:07;4.47;;;1.40;;
14125;SDS011;7141;49.484;11.242;2023-07-13T10:40:37;1.33;;;1.20;;
14125;SDS011;7141;49.484;11.242;2023-07-13T10:43:04;1.93;;;1.17;;
14125;SDS011;7141;49.484;11.242;2023-07-13T10:45:33;2.87;;;1.30;;
14125;SDS011;7141;49.484;11.242;2023-07-13T10:48:00;2.23;;;1.30;;
14125;SDS011;7141;49.484;11.242;2023-07-13T10:50:27;1.23;;;1.10;;
14125;SDS011;7141;49.484;11.242;2023-07-13T10:52:55;2.40;;;1.40;;
14125;SDS011;7141;49.484;11.242;2023-07-13T10:58:15;1.67;;;1.20;;
14125;SDS011;7141;49.484;11.242;2023-07-13T11:00:56;1.73;;;1.23;;
14125;SDS011;7141;49.484;11.242;2023-07-13T11:03:23;1.93;;;1.20;;
14125;SDS011;7141;49.484;11.242;2023-07-13T11:06:03;1.90;;;1.20;;
14125;SDS011;7141;49.484;11.242;2023-07-13T11:10:56;2.27;;;1.10;;
14125;SDS011;7141;49.484;11.242;2023-07-13T11:13:57;2.07;;;1.30;;
14125;SDS011;7141;49.484;11.242;2023-07-13T11:19:16;2.67;;;1.20;;
14125;SDS011;7141;49.484;11.242;2023-07-13T11:24:28;3.13;;;1.10;;
14125;SDS011;7141;49.484;11.242;2023-07-13T11:26:56;1.73;;;1.10;;
14125;SDS011;7141;49.484;11.242;2023-07-13T11:31:58;1.30;;;1.20;;
14125;SDS011;7141;49.484;11.242;2023-07-13T11:34:29;2.07;;;1.20;;
14125;SDS011;7141;49.484;11.242;2023-07-13T11:36:56;1.77;;;1.20;;
14125;SDS011;7141;49.484;11.242;2023-07-13T11:41:50;1.67;;;1.40;;
14125;SDS011;7141;49.484;11.242;2023-07-13T11:44:18;2.33;;;1.20;;
14125;SDS011;7141;49.484;11.242;2023-07-13T11:46:46;2.20;;;1.50;;
14125;SDS011;7141;49.484;11.242;2023-07-13T11:49:15;1.20;;;1.10;;
14125;SDS011;7141;49.484;11.242;2023-07-13T11:51:41;2.73;;;1.40;;
14125;SDS011;7141;49.484;11.242;2023-07-13T11:54:13;1.70;;;1.20;;
14125;SDS011;7141;49.484;11.242;2023-07-13T11:56:41;2.27;;;1.10;;
14125;SDS011;7141;49.484;11.242;2023-07-13T11:59:08;1.13;;;1.10;;
14125;SDS011;7141;49.484;11.242;2023-07-13T12:01:40;1.67;;;1.20;;
14125;SDS011;7141;49.484;11.242;2023-07-13T12:04:08;1.37;;;1.20;;
14125;SDS011;7141;49.484;11.242;2023-07-13T12:06:43;1.50;;;1.10;;
14125;SDS011;7141;49.484;11.242;2023-07-13T12:09:13;3.13;;;1.37;;
14125;SDS011;7141;49.484;11.242;2023-07-13T12:11:44;1.53;;;1.17;;
14125;SDS011;7141;49.484;11.242;2023-07-13T12:14:16;2.20;;;1.30;;
14125;SDS011;7141;49.484;11.242;2023-07-13T12:16:43;2.87;;;1.33;;
14125;SDS011;7141;49.484;11.242;2023-07-13T12:19:26;2.60;;;1.17;;
14125;SDS011;7141;49.484;11.242;2023-07-13T12:21:56;1.80;;;1.30;;
14125;SDS011;7141;49.484;11.242;2023-07-13T12:24:23;2.63;;;1.40;;
14125;SDS011;7141;49.484;11.242;2023-07-13T12:26:53;1.40;;;1.20;;
14125;SDS011;7141;49.484;11.242;2023-07-13T12:29:20;2.03;;;1.20;;
14125;SDS011;7141;49.484;11.242;2023-07-13T12:31:47;1.40;;;1.20;;
14125;SDS011;7141;49.484;11.242;2023-07-13T12:34:14;1.00;;;0.93;;
14125;SDS011;7141;49.484;11.242;2023-07-13T12:36:45;2.50;;;1.37;;
14125;SDS011;7141;49.484;11.242;2023-07-13T12:39:14;2.00;;;1.23;;
14125;SDS011;7141;49.484;11.242;2023-07-13T12:41:40;1.33;;;1.00;;
14125;SDS011;7141;49.484;11.242;2023-07-13T12:44:11;1.20;;;1.10;;
14125;SDS011;7141;49.484;11.242;2023-07-13T12:46:37;2.20;;;1.27;;
14125;SDS011;7141;49.484;11.242;2023-07-13T12:49:05;2.97;;;1.20;;
14125;SDS011;7141;49.484;11.242;2023-07-13T12:51:32;2.03;;;1.23;;
14125;SDS011;7141;49.484;11.242;2023-07-13T12:54:06;1.60;;;1.30;;
14125;SDS011;7141;49.484;11.242;2023-07-13T12:56:32;2.27;;;1.20;;
14125;SDS011;7141;49.484;11.242;2023-07-13T12:59:01;1.10;;;1.00;;
14125;SDS011;7141;49.484;11.242;2023-07-13T13:01:28;1.30;;;1.03;;
14125;SDS011;7141;49.484;11.242;2023-07-13T13:03:54;1.90;;;1.40;;
14125;SDS011;7141;49.484;11.242;2023-07-13T13:08:55;3.10;;;1.20;;
14125;SDS011;7141;49.484;11.242;2023-07-13T13:11:23;1.60;;;1.23;;
14125;SDS011;7141;49.484;11.242;2023-07-13T13:13:49;1.77;;;1.17;;
14125;SDS011;7141;49.484;11.242;2023-07-13T13:18:48;1.77;;;1.20;;
14125;SDS011;7141;49.484;11.242;2023-07-13T13:21:15;1.20;;;1.10;;
14125;SDS011;7141;49.484;11.242;2023-07-13T13:23:42;1.10;;;1.00;;
14125;SDS011;7141;49.484;11.242;2023-07-13T13:26:10;1.20;;;1.10;;
14125;SDS011;7141;49.484;11.242;2023-07-13T13:28:36;1.67;;;1.17;;
14125;SDS011;7141;49.484;11.242;2023-07-13T13:31:02;2.03;;;1.20;;
14125;SDS011;7141;49.484;11.242;2023-07-13T13:33:28;5.10;;;1.40;;
14125;SDS011;7141;49.484;11.242;2023-07-13T13:35:55;1.87;;;1.20;;
14125;SDS011;7141;49.484;11.242;2023-07-13T13:38:24;1.83;;;1.20;;
14125;SDS011;7141;49.484;11.242;2023-07-13T13:40:50;1.40;;;1.13;;
14125;SDS011;7141;49.484;11.242;2023-07-13T13:43:17;2.43;;;1.40;;
14125;SDS011;7141;49.484;11.242;2023-07-13T13:45:44;2.03;;;1.30;;
14125;SDS011;7141;49.484;11.242;2023-07-13T13:48:14;2.03;;;1.47;;
14125;SDS011;7141;49.484;11.242;2023-07-13T13:50:40;1.50;;;1.23;;
14125;SDS011;7141;49.484;11.242;2023-07-13T13:53:09;2.30;;;1.27;;
14125;SDS011;7141;49.484;11.242;2023-07-13T13:55:35;1.27;;;1.00;;
14125;SDS011;7141;49.484;11.242;2023-07-13T13:58:01;1.30;;;1.20;;
14125;SDS011;7141;49.484;11.242;2023-07-13T14:00:28;1.50;;;1.30;;
14125;SDS011;7141;49.484;11.242;2023-07-13T14:02:55;1.27;;;1.00;;
14125;SDS011;7141;49.484;11.242;2023-07-13T14:05:22;1.33;;;1.10;;
14125;SDS011;7141;49.484;11.242;2023-07-13T14:07:50;1.60;;;1.10;;
14125;SDS011;7141;49.484;11.242;2023-07-13T14:10:17;1.47;;;1.20;;
14125;SDS011;7141;49.484;11.242;2023-07-13T14:12:44;2.20;;;1.43;;
14125;SDS011;7141;49.484;11.242;2023-07-13T14:15:20;1.70;;;1.30;;
14125;SDS011;7141;49.484;11.242;2023-07-13T14:17:46;2.03;;;1.20;;
14125;SDS011;7141;49.484;11.242;2023-07-13T14:20:15;1.27;;;1.17;;
14125;SDS011;7141;49.484;11.242;2023-07-13T14:22:41;2.77;;;1.40;;
14125;SDS011;7141;49.484;11.242;2023-07-13T14:25:11;1.90;;;1.30;;
14125;SDS011;7141;49.484;11.242;2023-07-13T14:27:37;1.53;;;1.20;;
14125;SDS011;7141;49.484;11.242;2023-07-13T14:30:08;2.77;;;1.40;;
14125;SDS011;7141;49.484;11.242;2023-07-13T14:32:37;2.47;;;1.30;;
14125;SDS011;7141;49.484;11.242;2023-07-13T14:35:03;1.77;;;1.40;;
14125;SDS011;7141;49.484;11.242;2023-07-13T14:37:29;2.10;;;1.20;;
14125;SDS011;7141;49.484;11.242;2023-07-13T14:39:55;1.50;;;1.20;;
14125;SDS011;7141;49.484;11.242;2023-07-13T14:42:21;3.10;;;1.50;;
14125;SDS011;7141;49.484;11.242;2023-07-13T14:44:47;6.30;;;1.60;;
14125;SDS011;7141;49.484;11.242;2023-07-13T14:47:13;4.07;;;1.60;;
14125;SDS011;7141;49.484;11.242;2023-07-13T14:49:40;3.50;;;1.20;;
14125;SDS011;7141;49.484;11.242;2023-07-13T14:52:11;3.50;;;1.30;;
14125;SDS011;7141;49.484;11.242;2023-07-13T14:54:38;2.10;;;1.20;;
14125;SDS011;7141;49.484;11.242;2023-07-13T14:57:18;3.70;;;1.43;;
14125;SDS011;7141;49.484;11.242;2023-07-13T14:59:44;3.10;;;1.30;;
14125;SDS011;7141;49.484;11.242;2023-07-13T15:02:27;4.60;;;1.33;;
14125;SDS011;7141;49.484;11.242;2023-07-13T15:04:54;3.27;;;1.63;;
14125;SDS011;7141;49.484;11.242;2023-07-13T15:07:20;2.17;;;1.40;;
14125;SDS011;7141;49.484;11.242;2023-07-13T15:09:46;2.77;;;1.50;;
14125;SDS011;7141;49.484;11.242;2023-07-13T15:12:13;1.77;;;1.40;;
14125;SDS011;7141;49.484;11.242;2023-07-13T15:14:39;2.33;;;1.30;;
14125;SDS011;7141;49.484;11.242;2023-07-13T15:17:08;1.33;;;1.20;;
14125;SDS011;7141;49.484;11.242;2023-07-13T15:19:43;2.33;;;1.40;;
14125;SDS011;7141;49.484;11.242;2023-07-13T15:22:09;3.33;;;1.40;;
14125;SDS011;7141;49.484;11.242;2023-07-13T15:24:35;2.40;;;1.77;;
14125;SDS011;7141;49.484;11.242;2023-07-13T15:27:02;4.73;;;1.70;;
14125;SDS011;7141;49.484;11.242;2023-07-13T15:29:28;3.20;;;1.70;;
14125;SDS011;7141;49.484;11.242;2023-07-13T15:31:54;1.77;;;1.23;;
14125;SDS011;7141;49.484;11.242;2023-07-13T15:34:20;5.43;;;1.40;;
14125;SDS011;7141;49.484;11.242;2023-07-13T15:36:49;2.90;;;1.23;;